Time;durP1;ratioP1;P1;durP2;ratioP2;P2;SDS_P1;SDS_P2;PMS_P1;PMS_P2;Temp;Humidity;BMP_temperature;BMP_pressure;BME280_temperature;BME280_humidity;BME280_pressure;Samples;Min_cycle;Max_cycle;Signal;HPM_P1;HPM_P2
2023/04/24 07:52:32;;;;;;;10.52;4.82;;;;;;;17.76;64.88;92765.81;5105700;27;20082;-75
2023/04/24 07:55:00;;;;;;;12.73;4.78;;;;;;;17.71;65.78;92766.63;5091408;28;20048;-74
2023/04/24 07:57:27;;;;;;;9.48;4.78;;;;;;;17.97;64.53;92763.16;5103860;28;20079;-73
2023/04/24 07:59:53;;;;;;;9.57;4.68;;;;;;;18.03;65.49;92772.47;5109096;28;20048;-74
2023/04/24 08:02:25;;;;;;;11.75;5.00;;;;;;;18.11;65.02;92769.38;5109008;28;20453;-73
2023/04/24 08:04:52;;;;;;;9.95;4.72;;;;;;;18.05;63.63;92769.63;5109614;28;20147;-74
2023/04/24 08:07:19;;;;;;;7.97;4.32;;;;;;;17.94;63.82;92758.47;5097237;28;20044;-73
2023/04/24 08:09:47;;;;;;;8.73;4.10;;;;;;;18.11;64.16;92758.97;5109019;28;20040;-73
2023/04/24 08:12:14;;;;;;;8.20;4.68;;;;;;;18.14;62.49;92758.44;5108916;28;20097;-73
2023/04/24 08:14:40;;;;;;;6.22;4.25;;;;;;;18.42;62.40;92758.78;5108785;28;20495;-74
2023/04/24 08:17:07;;;;;;;7.22;4.15;;;;;;;18.27;61.12;92732.88;5109496;28;20047;-73
2023/04/24 08:19:34;;;;;;;7.53;4.03;;;;;;;18.59;61.34;92754.25;5109369;28;20041;-74
2023/04/24 08:22:00;;;;;;;9.73;4.13;;;;;;;18.56;59.74;92756.38;5094447;28;20094;-74
2023/04/24 08:24:27;;;;;;;7.35;3.70;;;;;;;18.66;59.54;92752.91;5109191;28;20112;-73
2023/04/24 08:26:57;;;;;;;6.60;3.67;;;;;;;18.55;58.65;92743.63;5108520;28;20059;-75
2023/04/24 08:29:24;;;;;;;7.72;3.67;;;;;;;18.61;59.44;92723.56;5108638;28;20052;-73
2023/04/24 08:31:51;;;;;;;11.15;3.75;;;;;;;19.02;56.15;92748.50;5109098;28;20039;-74
2023/04/24 08:34:18;;;;;;;5.65;3.45;;;;;;;19.24;54.95;92740.25;5093223;28;20052;-74
2023/04/24 08:36:44;;;;;;;4.97;3.35;;;;;;;19.32;54.31;92726.63;5093656;28;20064;-74
2023/04/24 08:39:11;;;;;;;9.85;3.72;;;;;;;19.56;53.57;92728.47;5107994;28;20047;-74
2023/04/24 08:41:42;;;;;;;9.18;4.20;;;;;;;19.80;52.21;92729.53;5107779;28;20476;-75
2023/04/24 08:44:23;;;;;;;10.32;3.60;;;;;;;20.04;52.83;92729.50;5109261;28;20070;-74
2023/04/24 08:46:55;;;;;;;5.90;3.67;;;;;;;20.26;51.11;92722.97;5109220;28;20074;-75
2023/04/24 08:49:30;;;;;;;7.25;3.80;;;;;;;20.00;50.22;92720.69;5102487;28;20044;-74
2023/04/24 08:52:01;;;;;;;6.80;3.80;;;;;;;20.10;52.59;92722.41;5105662;28;20051;-74
2023/04/24 08:54:33;;;;;;;6.97;3.38;;;;;;;19.99;49.18;92717.31;5125142;27;20090;-74
2023/04/24 08:57:05;;;;;;;7.15;2.80;;;;;;;20.01;50.13;92711.81;5128364;27;20505;-74
2023/04/24 08:59:35;;;;;;;7.65;3.58;;;;;;;20.02;49.98;92706.34;5115087;27;20540;-75
2023/04/24 09:02:04;;;;;;;8.40;3.45;;;;;;;20.15;49.07;92710.06;5128810;27;20055;-75
2023/04/24 09:04:31;;;;;;;4.97;3.08;;;;;;;20.03;48.84;92691.44;5115467;27;20046;-74
2023/04/24 09:06:59;;;;;;;7.32;3.50;;;;;;;20.09;50.09;92702.59;5128105;27;20047;-74
2023/04/24 09:09:26;;;;;;;6.40;3.67;;;;;;;20.13;50.41;92700.97;5128264;27;20043;-74
2023/04/24 09:11:55;;;;;;;7.32;4.03;;;;;;;20.27;50.67;92701.06;5128809;27;20092;-74
2023/04/24 09:14:23;;;;;;;5.20;3.33;;;;;;;20.24;49.85;92686.75;5128116;27;20043;-74
2023/04/24 09:16:52;;;;;;;4.82;3.63;;;;;;;20.35;49.20;92695.19;5128690;27;20129;-74
2023/04/24 09:19:18;;;;;;;6.13;3.15;;;;;;;20.54;48.59;92697.00;5128364;27;20051;-73
2023/04/24 09:21:47;;;;;;;5.90;2.97;;;;;;;20.53;47.84;92691.03;5128218;27;20111;-75
2023/04/24 09:24:18;;;;;;;5.53;3.20;;;;;;;20.72;48.83;92687.59;5101968;27;20043;-74
2023/04/24 09:26:45;;;;;;;5.32;2.95;;;;;;;20.97;47.98;92680.44;5109750;27;20415;-74
2023/04/24 09:29:16;;;;;;;5.65;3.50;;;;;;;21.06;46.14;92683.91;5128432;27;20388;-75
2023/04/24 09:31:43;;;;;;;4.78;2.60;;;;;;;21.34;46.01;92691.03;5127757;27;20134;-74
2023/04/24 09:34:11;;;;;;;7.53;3.40;;;;;;;21.46;46.25;92680.88;5128087;27;20043;-75
2023/04/24 09:36:40;;;;;;;7.32;3.00;;;;;;;21.44;45.34;92682.97;5128016;27;20043;-75
2023/04/24 09:39:10;;;;;;;6.55;2.95;;;;;;;21.61;45.80;92686.84;5127634;27;20039;-75
2023/04/24 09:41:45;;;;;;;7.03;2.92;;;;;;;21.66;44.65;92686.75;5127719;27;20043;-75
2023/04/24 09:44:13;;;;;;;4.57;2.88;;;;;;;21.80;43.04;92684.16;5128412;27;20091;-75
2023/04/24 09:46:39;;;;;;;3.83;2.72;;;;;;;21.88;43.38;92678.25;5127360;27;20491;-75
2023/04/24 09:49:16;;;;;;;6.63;3.15;;;;;;;21.98;44.21;92669.41;5127790;28;20179;-75
2023/04/24 09:51:43;;;;;;;7.93;2.30;;;;;;;22.12;43.94;92671.22;5100830;28;20126;-75
2023/04/24 09:54:17;;;;;;;6.82;2.92;;;;;;;22.29;44.46;92668.75;5127521;28;20100;-75
2023/04/24 09:56:46;;;;;;;4.75;2.35;;;;;;;22.56;43.38;92663.72;5127906;28;20081;-75
2023/04/24 09:59:13;;;;;;;5.65;2.55;;;;;;;22.73;42.94;92659.66;5127567;28;20047;-75
2023/04/24 10:01:42;;;;;;;7.55;3.08;;;;;;;22.75;42.28;92653.06;5128117;28;20043;-75
2023/04/24 10:04:18;;;;;;;5.55;2.30;;;;;;;22.63;41.31;92647.59;5127636;28;20103;-75
2023/04/24 10:06:45;;;;;;;5.45;2.83;;;;;;;22.56;40.01;92653.25;5127997;28;20134;-74
2023/04/24 10:09:13;;;;;;;3.97;2.38;;;;;;;22.67;41.45;92657.16;5127901;28;20100;-74
2023/04/24 10:11:43;;;;;;;4.20;2.45;;;;;;;22.53;41.81;92657.22;5127674;28;20174;-74
2023/04/24 10:14:11;;;;;;;5.05;2.85;;;;;;;22.41;40.40;92628.94;5127884;28;20497;-75
2023/04/24 10:16:39;;;;;;;4.72;2.78;;;;;;;22.69;41.03;92646.41;5127597;28;20043;-74
2023/04/24 10:19:06;;;;;;;3.50;2.50;;;;;;;22.80;40.36;92623.34;5127450;28;20138;-75
2023/04/24 10:21:35;;;;;;;4.90;2.55;;;;;;;22.87;39.19;92643.88;5123010;28;20100;-74
2023/04/24 10:24:09;;;;;;;7.38;2.78;;;;;;;22.89;39.66;92642.50;5116894;28;20115;-76
2023/04/24 10:26:37;;;;;;;6.85;2.80;;;;;;;22.73;40.07;92628.25;5127419;28;20078;-75
2023/04/24 10:29:09;;;;;;;6.13;2.70;;;;;;;22.43;40.92;92624.22;5127823;28;20100;-75
2023/04/24 10:31:37;;;;;;;3.33;2.20;;;;;;;22.44;38.96;92627.56;5127682;28;20071;-75
2023/04/24 10:34:05;;;;;;;5.28;2.60;;;;;;;22.59;40.38;92625.72;5123080;28;20088;-74
2023/04/24 10:36:33;;;;;;;6.10;2.70;;;;;;;22.70;41.08;92624.38;5126020;28;20462;-74
2023/04/24 10:39:04;;;;;;;5.05;2.67;;;;;;;22.98;39.73;92620.81;5127401;28;20047;-74
2023/04/24 10:41:32;;;;;;;5.95;2.40;;;;;;;22.76;38.84;92615.31;5127005;28;20051;-74
2023/04/24 10:44:09;;;;;;;7.18;2.88;;;;;;;22.60;39.36;92627.25;5126631;28;20055;-74
2023/04/24 10:46:36;;;;;;;5.13;3.17;;;;;;;22.37;39.85;92620.16;5113075;28;20047;-74
2023/04/24 10:49:06;;;;;;;8.00;3.50;;;;;;;22.23;39.08;92619.44;5127449;28;20047;-74
2023/04/24 10:51:47;;;;;;;7.28;3.15;;;;;;;21.87;40.99;92627.03;5127418;28;20043;-74
2023/04/24 10:54:26;;;;;;;8.13;3.25;;;;;;;21.71;41.48;92625.81;5112819;28;20137;-74
2023/04/24 10:56:53;;;;;;;8.27;3.35;;;;;;;21.57;42.38;92634.38;5102508;28;20051;-74
2023/04/24 10:59:28;;;;;;;6.47;3.33;;;;;;;21.36;43.02;92624.38;5126645;28;20055;-74
2023/04/24 11:01:56;;;;;;;6.30;3.92;;;;;;;21.14;43.78;92619.81;5126550;27;20115;-74
2023/04/24 11:04:34;;;;;;;7.30;3.60;;;;;;;21.00;45.42;92627.63;5130848;27;20047;-74
2023/04/24 11:07:02;;;;;;;8.50;4.07;;;;;;;20.78;47.78;92633.50;5130980;27;20130;-74
2023/04/24 11:09:32;;;;;;;8.70;3.45;;;;;;;20.50;47.82;92636.03;5130543;27;20078;-75
2023/04/24 11:12:07;;;;;;;6.90;2.70;;;;;;;20.09;48.53;92643.41;5130534;27;20047;-74
2023/04/24 11:15:01;;;;;;;12.00;3.92;;;;;;;19.87;49.63;92641.34;5130233;27;20057;-74
2023/04/24 11:17:33;;;;;;;6.47;3.40;;;;;;;19.70;48.23;92642.59;5111013;27;20082;-74
2023/04/24 11:20:06;;;;;;;9.02;3.55;;;;;;;19.60;48.91;92645.31;5130312;27;20509;-75
2023/04/24 11:22:35;;;;;;;6.75;3.60;;;;;;;19.48;51.36;92643.91;5130477;27;20414;-74
2023/04/24 11:25:04;;;;;;;10.70;5.90;;;;;;;19.26;50.48;92643.63;5130445;27;20079;-75
2023/04/24 11:27:33;;;;;;;26.30;10.38;;;;;;;19.10;53.01;92654.22;5130696;27;20108;-74
2023/04/24 11:30:03;;;;;;;17.63;8.50;;;;;;;18.97;58.67;92666.00;5114329;27;20048;-76
2023/04/24 11:32:31;;;;;;;11.02;5.32;;;;;;;18.54;66.28;92644.03;5118708;27;20087;-75
2023/04/24 11:35:03;;;;;;;8.35;4.07;;;;;;;17.90;70.10;92610.16;5130621;27;20043;-76
2023/04/24 11:37:35;;;;;;;7.75;4.60;;;;;;;17.81;75.29;92606.59;5127763;27;20517;-77
2023/04/24 11:40:02;;;;;;;8.75;4.57;;;;;;;17.76;81.24;92596.97;5129316;27;20499;-76
2023/04/24 11:42:45;;;;;;;6.15;4.15;;;;;;;17.60;77.00;92597.06;5130367;27;20040;-77
2023/04/24 11:45:16;;;;;;;6.70;4.22;;;;;;;17.31;75.17;92605.50;5129516;27;20134;-76
2023/04/24 11:47:44;;;;;;;7.78;4.38;;;;;;;17.28;74.27;92587.09;5130028;27;20490;-77
2023/04/24 11:50:13;;;;;;;7.63;4.35;;;;;;;17.29;73.28;92591.25;5130275;27;20047;-75
2023/04/24 11:52:41;;;;;;;9.38;4.88;;;;;;;17.16;74.78;92597.78;5129535;27;20043;-77
2023/04/24 11:55:10;;;;;;;6.78;4.72;;;;;;;16.94;77.42;92609.25;5130142;27;20047;-75
2023/04/24 11:57:36;;;;;;;9.85;5.78;;;;;;;16.89;82.70;92598.91;5130058;27;20525;-74
2023/04/24 12:00:06;;;;;;;9.60;5.45;;;;;;;15.85;88.77;92531.59;5129710;27;20070;-74
2023/04/24 12:02:32;;;;;;;9.70;6.25;;;;;;;16.35;99.13;92578.50;5129590;27;20047;-74
2023/04/24 12:04:59;;;;;;;11.63;7.35;;;;;;;16.59;100.00;92583.13;5129566;27;20507;-74
2023/04/24 12:07:26;;;;;;;8.93;6.40;;;;;;;16.85;93.06;92575.28;5129946;27;20607;-75
2023/04/24 12:09:57;;;;;;;9.20;6.68;;;;;;;17.05;94.82;92568.50;5129783;27;20054;-75
2023/04/24 12:12:26;;;;;;;7.72;5.13;;;;;;;17.26;94.56;92569.19;5129704;27;20051;-75
2023/04/24 12:14:55;;;;;;;8.45;5.95;;;;;;;17.33;89.49;92559.31;5128233;27;20138;-75
2023/04/24 12:17:27;;;;;;;7.40;5.68;;;;;;;17.45;86.49;92563.41;5129320;27;20054;-75
2023/04/24 12:19:59;;;;;;;8.55;5.90;;;;;;;17.60;83.74;92578.13;5129434;27;20072;-75
2023/04/24 12:22:25;;;;;;;8.32;5.80;;;;;;;17.65;84.69;92582.50;5129541;27;20438;-75
2023/04/24 12:25:00;;;;;;;6.25;5.25;;;;;;;17.63;83.09;92585.38;5129539;27;20104;-75
2023/04/24 12:27:27;;;;;;;10.35;5.78;;;;;;;17.57;86.58;92582.03;5128933;27;20427;-75
2023/04/24 12:29:55;;;;;;;13.02;6.35;;;;;;;17.64;85.60;92581.75;5128896;27;20445;-75
2023/04/24 12:32:24;;;;;;;9.40;6.13;;;;;;;17.55;88.04;92570.38;5129006;27;20120;-73
2023/04/24 12:34:53;;;;;;;7.50;5.40;;;;;;;17.32;87.62;92536.22;5128949;27;20574;-73
2023/04/24 12:37:20;;;;;;;9.13;6.30;;;;;;;17.33;92.24;92543.75;5128814;27;20051;-73
2023/04/24 12:40:00;;;;;;;7.07;5.70;;;;;;;17.35;90.91;92540.84;5129499;27;20051;-73
2023/04/24 12:42:28;;;;;;;7.72;5.78;;;;;;;17.32;94.84;92541.41;5128904;27;20509;-73
2023/04/24 12:44:58;;;;;;;10.20;6.30;;;;;;;17.30;96.71;92546.88;5128659;27;20380;-73
2023/04/24 12:47:25;;;;;;;9.68;6.15;;;;;;;17.25;96.16;92531.31;5129300;27;20047;-73
2023/04/24 12:49:55;;;;;;;8.77;5.45;;;;;;;17.12;92.62;92513.75;5128119;27;20449;-74
2023/04/24 12:52:22;;;;;;;12.38;7.38;;;;;;;17.05;94.18;92512.22;5110454;27;20046;-74
2023/04/24 12:54:49;;;;;;;8.65;6.75;;;;;;;17.14;94.83;92509.06;5109857;27;20092;-74
2023/04/24 12:57:15;;;;;;;8.23;5.90;;;;;;;17.31;97.17;92503.53;5128422;27;20425;-74
2023/04/24 12:59:43;;;;;;;9.48;6.13;;;;;;;17.35;96.97;92499.31;5128352;27;20047;-74
2023/04/24 13:02:10;;;;;;;12.02;6.00;;;;;;;17.41;93.67;92487.88;5128593;27;20051;-74
2023/04/24 13:04:37;;;;;;;9.00;5.28;;;;;;;17.48;95.71;92474.59;5128733;27;20047;-74
2023/04/24 13:07:07;;;;;;;7.57;4.97;;;;;;;17.54;93.13;92460.53;5128236;27;20055;-74
2023/04/24 13:09:35;;;;;;;8.15;4.90;;;;;;;17.74;91.57;92477.75;5128291;27;20499;-74
2023/04/24 13:12:02;;;;;;;8.32;4.88;;;;;;;17.72;91.08;92474.66;5128142;27;20043;-74
2023/04/24 13:14:29;;;;;;;18.10;9.50;;;;;;;17.67;89.12;92469.50;5128439;27;20047;-74
2023/04/24 13:16:55;;;;;;;10.82;6.38;;;;;;;17.63;86.04;92465.91;5127942;27;20039;-75
2023/04/24 13:19:22;;;;;;;8.10;6.43;;;;;;;17.78;86.20;92459.84;5128249;27;20047;-76
2023/04/24 13:21:49;;;;;;;11.93;5.15;;;;;;;17.98;81.59;92448.47;5128643;27;20043;-76
2023/04/24 13:24:17;;;;;;;10.00;5.35;;;;;;;18.21;81.09;92448.03;5125741;27;20046;-75
2023/04/24 13:26:44;;;;;;;8.63;5.15;;;;;;;18.42;78.34;92454.56;5125088;27;20067;-75
2023/04/24 13:29:11;;;;;;;6.57;4.97;;;;;;;18.60;75.08;92451.53;5128604;27;20043;-76
2023/04/24 13:31:38;;;;;;;5.72;4.13;;;;;;;18.83;76.42;92445.50;5127997;27;20043;-76
2023/04/24 13:34:04;;;;;;;6.30;4.18;;;;;;;19.02;77.90;92434.34;5128058;27;20043;-76
2023/04/24 13:36:31;;;;;;;7.38;3.80;;;;;;;19.19;72.08;92426.06;5128152;27;20095;-76
2023/04/24 13:38:58;;;;;;;5.70;3.92;;;;;;;19.52;71.94;92427.91;5127351;27;20453;-76
2023/04/24 13:41:26;;;;;;;5.68;3.42;;;;;;;19.80;68.45;92419.44;5120275;27;20055;-76
2023/04/24 13:43:53;;;;;;;5.65;3.50;;;;;;;20.01;64.50;92423.22;5115725;27;20072;-76
2023/04/24 13:46:19;;;;;;;8.02;4.10;;;;;;;20.21;63.74;92423.16;5124041;27;20433;-76
2023/04/24 13:48:46;;;;;;;6.03;3.78;;;;;;;20.13;61.50;92407.13;5128205;27;20073;-76
2023/04/24 13:51:16;;;;;;;7.05;5.00;;;;;;;20.06;64.86;92377.28;5118806;28;20100;-76
2023/04/24 13:53:43;;;;;;;6.10;3.95;;;;;;;20.38;60.75;92405.13;5112818;28;20051;-76
2023/04/24 13:56:10;;;;;;;4.97;3.53;;;;;;;20.51;57.31;92400.94;5127189;28;20092;-76
2023/04/24 13:58:38;;;;;;;4.93;3.70;;;;;;;20.62;62.96;92387.69;5128217;28;20046;-76
2023/04/24 14:01:05;;;;;;;5.07;3.15;;;;;;;20.85;56.77;92399.00;5127696;28;20047;-76
2023/04/24 14:03:32;;;;;;;9.95;3.03;;;;;;;20.94;55.03;92378.97;5128057;28;20039;-76
2023/04/24 14:05:58;;;;;;;4.38;3.10;;;;;;;21.12;59.75;92386.94;5127606;28;20588;-76
2023/04/24 14:08:25;;;;;;;6.85;3.15;;;;;;;21.13;57.44;92387.69;5127720;28;20051;-76
2023/04/24 14:10:52;;;;;;;4.90;2.97;;;;;;;21.11;55.72;92384.59;5127479;28;20049;-76
2023/04/24 14:13:19;;;;;;;7.15;3.25;;;;;;;21.15;58.65;92394.16;5127595;28;20495;-76
2023/04/24 14:15:47;;;;;;;4.90;2.97;;;;;;;21.07;57.41;92385.19;5127504;28;20088;-76
2023/04/24 14:18:14;;;;;;;4.28;3.15;;;;;;;21.02;57.44;92376.72;5127423;28;20047;-76
2023/04/24 14:20:41;;;;;;;9.27;4.05;;;;;;;21.03;55.70;92384.25;5127507;28;20043;-76
2023/04/24 14:23:07;;;;;;;10.10;3.78;;;;;;;21.02;56.56;92384.53;5128089;28;20043;-76
2023/04/24 14:25:34;;;;;;;5.88;3.28;;;;;;;21.07;56.48;92381.81;5127204;28;20053;-77
2023/04/24 14:28:01;;;;;;;6.82;4.15;;;;;;;20.91;58.60;92363.88;5127506;28;20043;-77
2023/04/24 14:30:28;;;;;;;6.68;3.70;;;;;;;21.02;59.66;92374.84;5128024;28;20043;-77
2023/04/24 14:32:56;;;;;;;7.50;4.50;;;;;;;20.80;59.21;92358.09;5127370;28;20088;-77
2023/04/24 14:35:23;;;;;;;7.00;3.30;;;;;;;20.69;58.62;92362.75;5127498;28;20044;-76
2023/04/24 14:37:49;;;;;;;7.25;3.65;;;;;;;20.41;52.92;92367.25;5129523;27;20047;-77
2023/04/24 14:40:16;;;;;;;7.60;3.63;;;;;;;20.37;55.29;92361.06;5130875;27;20104;-76
2023/04/24 14:42:45;;;;;;;5.63;3.88;;;;;;;20.21;53.60;92355.38;5117791;27;20047;-77
2023/04/24 14:45:12;;;;;;;7.15;2.97;;;;;;;20.00;51.26;92371.41;5132154;27;20088;-77
2023/04/24 14:47:39;;;;;;;4.53;3.08;;;;;;;19.82;52.55;92365.19;5131279;27;20043;-74
2023/04/24 14:50:09;;;;;;;5.28;3.40;;;;;;;19.60;51.76;92353.56;5131451;27;20043;-75
2023/04/24 14:52:35;;;;;;;3.80;2.85;;;;;;;19.66;51.72;92375.84;5131076;27;20051;-75
2023/04/24 14:55:02;;;;;;;4.28;2.63;;;;;;;19.56;51.09;92374.22;5128159;27;20468;-75
2023/04/24 14:57:29;;;;;;;3.88;2.70;;;;;;;19.39;48.77;92373.97;5130975;27;20043;-76
2023/04/24 14:59:56;;;;;;;3.42;2.10;;;;;;;19.27;46.89;92379.63;5130813;27;20043;-76
2023/04/24 15:02:22;;;;;;;4.80;2.75;;;;;;;19.20;47.11;92380.75;5130775;27;20055;-75
2023/04/24 15:04:49;;;;;;;5.25;2.58;;;;;;;19.13;47.43;92369.94;5130929;27;20565;-74
2023/04/24 15:07:17;;;;;;;4.15;1.77;;;;;;;19.04;47.36;92380.22;5131100;27;20051;-75
2023/04/24 15:09:44;;;;;;;7.32;2.10;;;;;;;18.83;49.68;92351.06;5130473;27;20047;-75
2023/04/24 15:12:12;;;;;;;7.95;3.15;;;;;;;18.90;50.04;92374.91;5130452;27;20096;-75
2023/04/24 15:14:38;;;;;;;9.02;3.40;;;;;;;18.73;50.58;92369.41;5130689;27;20039;-75
2023/04/24 15:17:05;;;;;;;8.90;3.75;;;;;;;18.69;51.09;92371.81;5130927;27;20067;-76
2023/04/24 15:19:32;;;;;;;30.55;11.55;;;;;;;18.47;51.90;92361.94;5130183;27;20088;-77
2023/04/24 15:21:59;;;;;;;16.77;9.35;;;;;;;18.43;53.82;92370.31;5130750;27;20112;-77
2023/04/24 15:24:27;;;;;;;11.13;6.10;;;;;;;18.38;53.50;92372.97;5130473;27;20051;-77
2023/04/24 15:26:55;;;;;;;10.95;4.85;;;;;;;18.25;54.23;92368.44;5130727;27;20050;-77
2023/04/24 15:29:21;;;;;;;19.23;11.18;;;;;;;18.26;56.22;92370.78;5130543;27;20051;-77
2023/04/24 15:31:48;;;;;;;93.05;38.90;;;;;;;18.23;56.38;92371.31;5130012;27;20445;-76
2023/04/24 15:34:15;;;;;;;48.92;22.90;;;;;;;18.14;56.36;92363.38;5130387;27;20046;-77
2023/04/24 15:36:42;;;;;;;30.30;17.63;;;;;;;18.13;57.64;92366.22;5129516;27;20058;-77
2023/04/24 15:39:09;;;;;;;105.80;38.67;;;;;;;18.08;57.64;92361.88;5130635;27;20125;-77
2023/04/24 15:41:38;;;;;;;181.70;66.38;;;;;;;17.97;57.54;92363.00;5129252;27;20089;-77
2023/04/24 15:44:05;;;;;;;198.50;84.35;;;;;;;17.85;56.97;92365.97;5129743;27;20800;-78
2023/04/24 15:46:31;;;;;;;252.02;110.85;;;;;;;17.74;57.97;92368.66;5129834;27;20525;-77
2023/04/24 15:48:58;;;;;;;144.23;62.30;;;;;;;17.72;58.22;92370.78;5129310;27;20051;-76
2023/04/24 15:51:25;;;;;;;92.78;44.50;;;;;;;17.72;58.67;92381.16;5129568;27;20043;-76
2023/04/24 15:53:52;;;;;;;10.48;6.45;;;;;;;17.73;59.36;92400.13;5130419;27;20422;-76
2023/04/24 15:56:19;;;;;;;24.75;7.95;;;;;;;17.67;57.86;92399.41;5111531;27;20546;-78
2023/04/24 15:58:47;;;;;;;17.08;6.72;;;;;;;17.54;57.06;92405.22;5130015;27;20092;-77
2023/04/24 16:01:14;;;;;;;5.55;3.20;;;;;;;17.00;58.73;92418.81;5130333;27;20092;-77
2023/04/24 16:03:41;;;;;;;5.97;3.55;;;;;;;16.42;63.08;92426.09;5129599;27;20043;-78
2023/04/24 16:06:08;;;;;;;5.53;3.33;;;;;;;15.88;70.55;92425.66;5129330;27;20051;-78
2023/04/24 16:08:35;;;;;;;4.55;3.03;;;;;;;15.44;74.68;92428.81;5129468;27;20047;-77
2023/04/24 16:11:02;;;;;;;6.50;3.42;;;;;;;15.36;76.07;92448.22;5129973;27;20046;-78
2023/04/24 16:13:30;;;;;;;4.47;3.28;;;;;;;14.86;80.38;92442.72;5129291;27;20047;-77
2023/04/24 16:15:59;;;;;;;5.50;3.65;;;;;;;14.68;83.09;92452.47;5129750;27;20520;-78
2023/04/24 16:18:26;;;;;;;5.80;3.90;;;;;;;14.50;85.73;92446.72;5129882;27;20403;-78
2023/04/24 16:20:53;;;;;;;7.13;4.47;;;;;;;14.30;93.04;92444.78;5129874;27;20158;-74
2023/04/24 16:23:20;;;;;;;13.73;9.30;;;;;;;14.10;100.00;92446.25;5129368;27;20050;-74
2023/04/24 16:25:47;;;;;;;11.77;7.55;;;;;;;13.96;100.00;92450.28;5125328;27;20062;-75
2023/04/24 16:28:15;;;;;;;9.02;5.55;;;;;;;13.89;100.00;92442.78;5123798;27;20054;-73
2023/04/24 16:30:42;;;;;;;8.45;5.32;;;;;;;13.46;100.00;92443.50;5129611;27;20166;-73
2023/04/24 16:33:10;;;;;;;7.72;6.38;;;;;;;13.09;100.00;92436.44;5129633;27;20054;-74
2023/04/24 16:35:37;;;;;;;9.02;6.40;;;;;;;12.83;100.00;92442.16;5128560;27;20051;-73
2023/04/24 16:38:04;;;;;;;9.35;6.20;;;;;;;12.67;100.00;92424.97;5128771;27;20134;-73
2023/04/24 16:40:32;;;;;;;10.48;6.40;;;;;;;12.76;100.00;92420.16;5129158;27;20557;-74
2023/04/24 16:42:59;;;;;;;10.00;6.63;;;;;;;12.72;100.00;92422.44;5128850;27;20051;-74
2023/04/24 16:45:26;;;;;;;9.30;6.80;;;;;;;12.80;100.00;92437.50;5128318;27;20047;-75
2023/04/24 16:47:53;;;;;;;11.68;8.32;;;;;;;12.84;100.00;92442.94;5124071;27;20054;-74
2023/04/24 16:50:22;;;;;;;18.50;9.75;;;;;;;12.79;100.00;92445.44;5116473;27;20491;-73
2023/04/24 16:52:49;;;;;;;14.07;10.20;;;;;;;12.87;100.00;92449.41;5128541;27;20059;-74
2023/04/24 16:55:16;;;;;;;12.60;9.45;;;;;;;12.83;100.00;92454.25;5122975;27;20551;-73
2023/04/24 16:57:44;;;;;;;13.93;8.82;;;;;;;12.57;100.00;92453.97;5127918;27;20058;-73
2023/04/24 17:00:13;;;;;;;10.75;7.47;;;;;;;12.27;100.00;92439.72;5111378;27;20043;-74
2023/04/24 17:02:40;;;;;;;11.88;8.80;;;;;;;12.16;100.00;92433.66;5126568;27;20043;-73
2023/04/24 17:05:08;;;;;;;11.80;8.70;;;;;;;12.05;100.00;92429.41;5108112;28;20407;-74
2023/04/24 17:07:37;;;;;;;11.75;9.85;;;;;;;11.94;100.00;92433.63;5127484;27;20047;-74
2023/04/24 17:10:04;;;;;;;12.70;9.43;;;;;;;12.03;100.00;92455.34;5128819;27;20047;-74
2023/04/24 17:12:32;;;;;;;12.13;9.73;;;;;;;12.28;100.00;92462.63;5128433;27;20039;-73
2023/04/24 17:14:59;;;;;;;10.98;8.60;;;;;;;12.29;100.00;92469.38;5127981;27;20051;-73
2023/04/24 17:17:26;;;;;;;12.10;8.93;;;;;;;12.44;100.00;92468.00;5128115;27;20047;-73
2023/04/24 17:19:54;;;;;;;11.55;9.00;;;;;;;12.73;100.00;92491.00;5128334;27;20047;-72
2023/04/24 17:22:21;;;;;;;15.55;10.55;;;;;;;12.93;100.00;92498.19;5127966;27;20039;-72
2023/04/24 17:24:49;;;;;;;14.15;9.75;;;;;;;13.12;100.00;92515.13;5128223;27;20062;-72
2023/04/24 17:27:17;;;;;;;10.32;8.02;;;;;;;13.20;100.00;92527.59;5128406;27;20392;-72
2023/04/24 17:29:44;;;;;;;16.38;9.60;;;;;;;13.14;100.00;92537.06;5128126;27;20061;-72
2023/04/24 17:32:11;;;;;;;7.10;5.40;;;;;;;13.12;100.00;92544.28;5128081;27;20407;-72
2023/04/24 17:34:38;;;;;;;7.78;3.95;;;;;;;12.92;100.00;92535.28;5127310;27;20051;-72
2023/04/24 17:37:05;;;;;;;10.38;4.60;;;;;;;12.81;100.00;92539.56;5128279;27;20039;-72
2023/04/24 17:39:33;;;;;;;8.68;5.28;;;;;;;12.67;100.00;92540.91;5128024;27;20043;-71
2023/04/24 17:42:01;;;;;;;7.85;4.95;;;;;;;12.76;100.00;92541.28;5127521;27;20073;-71
2023/04/24 17:44:28;;;;;;;7.85;4.03;;;;;;;12.69;100.00;92544.03;5128110;27;20053;-71
2023/04/24 17:46:54;;;;;;;8.60;3.85;;;;;;;12.71;100.00;92554.88;5128020;27;20450;-71
2023/04/24 17:49:21;;;;;;;7.30;4.50;;;;;;;12.65;100.00;92558.41;5123633;27;20043;-71
2023/04/24 17:51:48;;;;;;;9.25;5.40;;;;;;;12.66;100.00;92560.75;5118553;28;20092;-71
2023/04/24 17:54:14;;;;;;;11.07;6.53;;;;;;;12.71;100.00;92547.16;5127326;28;20449;-71
2023/04/24 17:56:41;;;;;;;10.77;6.55;;;;;;;12.71;100.00;92539.41;5128077;28;20068;-71
2023/04/24 17:59:09;;;;;;;22.70;11.45;;;;;;;12.43;100.00;92523.09;5127828;28;20051;-72
2023/04/24 18:01:36;;;;;;;10.90;6.45;;;;;;;12.10;100.00;92501.53;5127731;28;20051;-72
2023/04/24 18:04:03;;;;;;;8.30;5.22;;;;;;;11.88;100.00;92479.06;5127933;28;20129;-72
2023/04/24 18:06:29;;;;;;;9.02;5.25;;;;;;;11.65;100.00;92472.28;5127963;28;20559;-72
2023/04/24 18:08:56;;;;;;;8.30;4.65;;;;;;;11.58;100.00;92493.03;5128167;28;20043;-71
2023/04/24 18:11:23;;;;;;;8.10;5.40;;;;;;;11.58;100.00;92501.53;5114339;27;20039;-71
2023/04/24 18:13:50;;;;;;;8.38;5.18;;;;;;;11.63;100.00;92514.47;5131682;27;20043;-70
2023/04/24 18:16:18;;;;;;;13.90;6.53;;;;;;;11.70;100.00;92522.03;5131779;27;20043;-71
2023/04/24 18:18:45;;;;;;;35.35;15.93;;;;;;;11.80;100.00;92526.56;5132033;27;20043;-71
2023/04/24 18:21:11;;;;;;;60.03;30.83;;;;;;;11.95;100.00;92543.25;5132024;27;20047;-71
2023/04/24 18:23:38;;;;;;;67.70;34.88;;;;;;;11.96;100.00;92552.53;5131764;27;20047;-71
2023/04/24 18:26:05;;;;;;;81.47;42.97;;;;;;;12.05;100.00;92565.81;5130280;27;20108;-71
2023/04/24 18:28:50;;;;;;;30.30;16.60;;;;;;;11.99;100.00;92612.03;5110280;28;20100;-72
2023/04/24 18:31:18;;;;;;;16.20;9.68;;;;;;;11.85;100.00;92606.41;5108898;27;20055;-71
2023/04/24 18:33:45;;;;;;;12.63;8.02;;;;;;;11.76;100.00;92607.81;5131175;27;20428;-71
2023/04/24 18:36:12;;;;;;;10.40;5.80;;;;;;;11.75;100.00;92617.31;5131821;27;20465;-72
2023/04/24 18:38:39;;;;;;;10.77;6.93;;;;;;;11.69;100.00;92607.94;5131408;27;20043;-71
2023/04/24 18:41:06;;;;;;;7.38;3.65;;;;;;;11.60;100.00;92602.41;5131746;27;20043;-71
2023/04/24 18:43:32;;;;;;;6.38;3.47;;;;;;;11.53;100.00;92585.56;5131807;27;20043;-72
2023/04/24 18:45:59;;;;;;;3.95;2.78;;;;;;;11.27;100.00;92564.50;5131196;27;20096;-72
2023/04/24 18:48:29;;;;;;;3.90;2.55;;;;;;;11.26;100.00;92580.94;5131030;27;20039;-72
2023/04/24 18:50:56;;;;;;;4.10;2.58;;;;;;;11.28;100.00;92589.22;5131794;27;20043;-71
2023/04/24 18:53:23;;;;;;;3.47;2.00;;;;;;;11.14;100.00;92574.06;5130866;27;20492;-72
2023/04/24 18:55:50;;;;;;;3.83;2.05;;;;;;;11.14;100.00;92579.19;5121157;27;20109;-72
2023/04/24 18:58:17;;;;;;;3.25;1.75;;;;;;;11.02;100.00;92568.94;5126845;27;20051;-72
2023/04/24 19:00:44;;;;;;;5.13;1.85;;;;;;;11.01;100.00;92576.91;5131430;27;20112;-72
2023/04/24 19:03:11;;;;;;;3.53;1.73;;;;;;;10.98;100.00;92579.91;5131495;27;20088;-72
2023/04/24 19:05:39;;;;;;;4.10;2.28;;;;;;;11.00;100.00;92580.47;5131064;27;20047;-71
2023/04/24 19:08:05;;;;;;;2.65;1.58;;;;;;;10.85;100.00;92573.22;5131127;27;20047;-72
2023/04/24 19:10:33;;;;;;;2.70;1.67;;;;;;;10.88;100.00;92570.22;5127530;27;20159;-72
2023/04/24 19:13:00;;;;;;;2.40;1.50;;;;;;;10.77;100.00;92543.53;5129076;27;20123;-72
2023/04/24 19:15:28;;;;;;;4.45;1.95;;;;;;;10.82;100.00;92557.28;5130676;27;20039;-72
2023/04/24 19:17:55;;;;;;;3.00;1.23;;;;;;;10.77;100.00;92558.94;5131300;27;20119;-72
2023/04/24 19:20:22;;;;;;;3.35;1.58;;;;;;;10.75;100.00;92558.41;5130813;27;20412;-72
2023/04/24 19:22:50;;;;;;;2.97;1.50;;;;;;;10.67;100.00;92551.81;5130791;27;20433;-72
2023/04/24 19:25:17;;;;;;;4.47;1.58;;;;;;;10.69;100.00;92563.44;5130801;27;20092;-72